createdAt,value
2019-05-26T00:02:15.310Z,57.10
2019-05-26T00:04:45.841Z,57.10
2019-05-26T00:07:29.731Z,57.10
2019-05-26T00:09:49.833Z,57.00
2019-05-26T00:12:21.408Z,56.90
2019-05-26T00:14:51.821Z,56.90
2019-05-26T00:17:22.216Z,57.10
2019-05-26T00:19:52.719Z,57.00
2019-05-26T00:22:24.670Z,56.80
2019-05-26T00:24:55.044Z,56.80
2019-05-26T00:27:25.520Z,56.60
2019-05-26T00:29:55.908Z,56.50
2019-05-26T00:32:26.308Z,56.50
2019-05-26T00:34:56.700Z,56.30
2019-05-26T00:37:28.585Z,56.20
2019-05-26T00:39:59.056Z,56.20
2019-05-26T00:42:29.496Z,56.10
2019-05-26T00:44:59.875Z,56.20
2019-05-26T00:47:31.127Z,56.50
2019-05-26T00:50:01.509Z,56.70
2019-05-26T00:52:31.938Z,56.80
2019-05-26T00:55:02.512Z,56.90
2019-05-26T00:57:33.035Z,56.90
2019-05-26T01:00:05.202Z,57.00
2019-05-26T01:02:35.768Z,57.10
2019-05-26T01:05:08.789Z,57.20
2019-05-26T01:07:40.668Z,57.10
2019-05-26T01:10:11.176Z,57.00
2019-05-26T01:12:43.072Z,57.20
2019-05-26T01:15:13.647Z,57.30
2019-05-26T01:17:44.073Z,57.30
2019-05-26T01:20:16.412Z,57.10
2019-05-26T01:22:47.053Z,57.00
2019-05-26T01:25:17.790Z,57.20
2019-05-26T01:27:48.319Z,59.40
2019-05-26T01:30:18.901Z,61.40
2019-05-26T01:32:49.338Z,60.70
2019-05-26T01:35:19.731Z,59.40
2019-05-26T01:37:50.126Z,57.60
2019-05-26T01:40:23.548Z,57.70
2019-05-26T01:42:55.487Z,57.90
2019-05-26T01:45:25.902Z,58.40
2019-05-26T01:47:57.173Z,58.90
2019-05-26T01:50:27.598Z,59.60
2019-05-26T01:52:57.977Z,60.40
2019-05-26T01:55:28.408Z,61.30
2019-05-26T01:57:58.813Z,61.70
2019-05-26T02:00:29.304Z,61.60
2019-05-26T02:02:59.917Z,61.20
2019-05-26T02:05:30.318Z,61.00
2019-05-26T02:08:02.157Z,60.90
2019-05-26T02:10:32.569Z,61.20
2019-05-26T02:13:02.971Z,61.60
2019-05-26T02:15:33.527Z,61.50
2019-05-26T02:18:04.227Z,61.50
2019-05-26T02:20:34.737Z,61.90
2019-05-26T02:23:05.116Z,63.30
2019-05-26T02:25:35.598Z,65.10
2019-05-26T02:28:05.975Z,63.40
2019-05-26T02:30:36.395Z,61.90
2019-05-26T02:33:06.827Z,62.20
2019-05-26T02:35:37.332Z,61.30
2019-05-26T02:38:09.185Z,60.90
2019-05-26T02:40:39.694Z,60.70
2019-05-26T02:43:12.428Z,60.50
2019-05-26T02:45:42.862Z,60.50
2019-05-26T02:48:13.239Z,60.60
2019-05-26T02:50:43.639Z,60.50
2019-05-26T02:53:14.098Z,60.60
2019-05-26T02:55:44.495Z,60.50
2019-05-26T02:58:14.957Z,60.40
2019-05-26T03:00:47.125Z,60.40
2019-05-26T03:03:18.973Z,60.40
2019-05-26T03:05:51.463Z,60.50
2019-05-26T03:08:22.251Z,60.80
2019-05-26T03:10:53.413Z,61.20
2019-05-26T03:13:23.869Z,61.60
2019-05-26T03:15:56.204Z,61.80
2019-05-26T03:18:29.566Z,61.70
2019-05-26T03:21:03.234Z,61.70
2019-05-26T03:23:35.431Z,62.40
2019-05-26T03:26:07.469Z,61.60
2019-05-26T03:28:37.897Z,61.50
2019-05-26T03:31:08.276Z,61.50
2019-05-26T03:33:38.758Z,61.60
2019-05-26T03:36:10.626Z,61.60
2019-05-26T03:38:41.447Z,61.60
2019-05-26T03:41:11.908Z,62.50
2019-05-26T03:43:42.349Z,61.60
2019-05-26T03:46:21.868Z,61.40
2019-05-26T03:48:53.842Z,61.20
2019-05-26T03:51:24.271Z,60.70
2019-05-26T03:53:54.771Z,60.40
2019-05-26T03:56:25.265Z,60.30
2019-05-26T03:58:57.405Z,60.00
2019-05-26T04:01:29.747Z,60.00
2019-05-26T04:04:00.133Z,60.20
2019-05-26T04:06:32.133Z,60.00
2019-05-26T04:09:02.719Z,60.10
2019-05-26T04:11:33.142Z,59.90
2019-05-26T04:14:03.786Z,59.30
2019-05-26T04:16:34.360Z,58.80
2019-05-26T04:19:04.811Z,58.80
2019-05-26T04:21:35.251Z,58.60
2019-05-26T04:24:07.171Z,58.50
2019-05-26T04:26:37.604Z,58.50
2019-05-26T04:29:08.042Z,58.20
2019-05-26T04:31:38.460Z,58.30
2019-05-26T04:34:08.842Z,58.30
2019-05-26T04:36:39.376Z,58.10
2019-05-26T04:39:09.763Z,58.00
2019-05-26T04:41:40.246Z,58.00
2019-05-26T04:44:10.623Z,58.00
2019-05-26T04:46:41.154Z,58.20
2019-05-26T04:49:11.526Z,58.30
2019-05-26T04:51:41.935Z,58.20
2019-05-26T04:54:13.160Z,57.60
2019-05-26T04:56:43.866Z,57.60
2019-05-26T04:59:14.241Z,57.20
2019-05-26T05:01:46.126Z,56.00
2019-05-26T05:04:16.512Z,55.30
2019-05-26T05:06:46.929Z,54.50
2019-05-26T05:09:17.319Z,54.10
2019-05-26T05:11:48.541Z,53.90
2019-05-26T05:14:19.171Z,53.50
2019-05-26T05:16:49.727Z,53.30
2019-05-26T05:19:20.102Z,53.00
2019-05-26T05:21:50.686Z,52.80
2019-05-26T05:24:21.126Z,53.00
2019-05-26T05:26:53.112Z,52.50
2019-05-26T05:29:23.609Z,51.90
2019-05-26T05:34:24.781Z,49.30
2019-05-26T05:36:56.718Z,47.90
2019-05-26T05:39:27.115Z,45.90
2019-05-26T05:41:57.499Z,43.50
2019-05-26T05:44:27.940Z,42.10
2019-05-26T05:46:58.355Z,42.50
2019-05-26T05:49:28.780Z,43.00
2019-05-26T05:52:00.746Z,42.80
2019-05-26T05:54:32.595Z,41.90
2019-05-26T05:57:03.130Z,41.30
2019-05-26T05:59:33.489Z,41.80
2019-05-26T06:02:04.004Z,43.10
2019-05-26T06:04:35.195Z,43.20
2019-05-26T06:07:05.607Z,43.20
2019-05-26T06:09:35.982Z,43.40
2019-05-26T06:12:06.384Z,43.20
2019-05-26T06:14:38.299Z,42.40
2019-05-26T06:17:10.581Z,40.60
2019-05-26T06:19:40.832Z,38.60
2019-05-26T06:22:11.220Z,36.20
2019-05-26T06:24:41.645Z,35.30
2019-05-26T06:27:12.015Z,34.00
2019-05-26T06:29:57.798Z,33.60
2019-05-26T06:32:14.782Z,33.10
2019-05-26T06:34:45.380Z,32.40
2019-05-26T06:37:15.755Z,32.30
2019-05-26T06:39:46.184Z,32.10
2019-05-26T06:42:16.620Z,31.60
2019-05-26T06:44:53.527Z,31.70
2019-05-26T06:47:19.927Z,32.30
2019-05-26T06:49:50.332Z,32.80
2019-05-26T06:52:21.538Z,32.90
2019-05-26T06:54:52.783Z,32.40
2019-05-26T06:57:23.156Z,31.90
2019-05-26T06:59:53.636Z,31.50
2019-05-26T07:02:25.510Z,30.40
2019-05-26T07:04:55.956Z,29.70
2019-05-26T07:07:26.370Z,29.30
2019-05-26T07:09:58.250Z,28.80
2019-05-26T07:12:28.754Z,27.30
2019-05-26T07:14:59.128Z,26.00
2019-05-26T07:17:29.537Z,25.10
2019-05-26T07:19:59.940Z,24.30
2019-05-26T07:22:30.742Z,23.60
2019-05-26T07:25:01.102Z,22.30
2019-05-26T07:27:31.567Z,21.20
2019-05-26T07:30:05.111Z,20.30
2019-05-26T07:32:35.523Z,19.40
2019-05-26T07:35:07.180Z,18.70
2019-05-26T07:37:37.749Z,18.30
2019-05-26T07:40:08.392Z,18.00
2019-05-26T07:42:38.862Z,17.90
2019-05-26T07:45:10.809Z,17.40
2019-05-26T07:47:41.203Z,17.20
2019-05-26T07:50:11.988Z,17.00
2019-05-26T07:52:42.477Z,17.00
2019-05-26T07:55:13.160Z,16.60
2019-05-26T07:57:43.668Z,16.20
2019-05-26T08:00:14.778Z,15.90
2019-05-26T08:02:45.172Z,15.80
2019-05-26T08:05:16.154Z,15.40
2019-05-26T08:07:46.585Z,15.40
2019-05-26T08:10:17.088Z,15.70
2019-05-26T08:12:47.545Z,15.50
2019-05-26T08:15:18.034Z,15.20
2019-05-26T08:17:49.955Z,14.70
2019-05-26T08:20:20.319Z,14.30
2019-05-26T08:22:50.740Z,14.40
2019-05-26T08:25:22.580Z,14.50
2019-05-26T08:27:53.012Z,14.50
2019-05-26T08:30:23.556Z,14.20
2019-05-26T08:32:53.922Z,14.00
2019-05-26T08:35:24.369Z,13.70
2019-05-26T08:37:54.844Z,13.80
2019-05-26T08:40:26.692Z,13.70
2019-05-26T08:42:57.142Z,13.60
2019-05-26T08:45:29.179Z,13.40
2019-05-26T08:47:59.562Z,13.10
2019-05-26T08:50:30.075Z,13.30
2019-05-26T08:55:30.449Z,12.20
2019-05-26T08:58:01.139Z,12.40
2019-05-26T09:00:31.606Z,12.40
2019-05-26T09:03:02.072Z,12.30
2019-05-26T09:05:32.528Z,12.30
2019-05-26T09:08:02.940Z,12.30
2019-05-26T09:10:34.961Z,12.70
2019-05-26T09:13:05.385Z,12.70
2019-05-26T09:15:37.332Z,13.10
2019-05-26T09:18:07.813Z,13.00
2019-05-26T09:20:38.350Z,13.80
2019-05-26T09:23:08.786Z,13.80
2019-05-26T09:25:39.155Z,13.90
2019-05-26T09:28:09.575Z,14.30
2019-05-26T09:30:39.944Z,14.70
2019-05-26T09:33:10.337Z,14.80
2019-05-26T09:35:40.737Z,15.10
2019-05-26T09:38:11.150Z,15.80
2019-05-26T09:40:41.520Z,16.40
2019-05-26T09:43:16.106Z,15.80
2019-05-26T09:45:44.007Z,16.00
2019-05-26T09:48:14.530Z,16.30
2019-05-26T09:50:44.971Z,16.70
2019-05-26T09:53:15.387Z,17.60
2019-05-26T09:55:47.342Z,18.80
2019-05-26T09:58:19.461Z,20.30
2019-05-26T10:00:49.961Z,21.20
2019-05-26T10:03:20.349Z,22.40
2019-05-26T10:05:51.140Z,23.40
2019-05-26T10:08:23.176Z,24.40
2019-05-26T10:10:53.576Z,25.20
2019-05-26T10:13:31.757Z,26.00
2019-05-26T10:15:57.651Z,27.00
2019-05-26T10:18:28.103Z,28.00
2019-05-26T10:20:58.525Z,28.50
2019-05-26T10:23:28.909Z,28.60
2019-05-26T10:25:59.413Z,28.90
2019-05-26T10:28:29.783Z,29.30
2019-05-26T10:31:01.776Z,29.80
2019-05-26T10:33:32.163Z,30.30
2019-05-26T10:36:04.027Z,30.50
2019-05-26T10:38:34.474Z,30.80
2019-05-26T10:41:05.036Z,30.70
2019-05-26T10:43:46.911Z,30.90
2019-05-26T10:46:07.793Z,31.50
2019-05-26T10:48:38.236Z,31.70
2019-05-26T10:51:08.641Z,32.20
2019-05-26T10:53:39.064Z,32.40
2019-05-26T10:56:09.480Z,31.90
2019-05-26T10:58:39.894Z,32.50
2019-05-26T11:01:11.888Z,32.90
2019-05-26T11:03:42.331Z,33.00
2019-05-26T11:06:12.717Z,33.50
2019-05-26T11:08:43.443Z,34.10
2019-05-26T11:11:13.819Z,34.80
2019-05-26T11:13:44.216Z,35.30
2019-05-26T11:16:15.422Z,35.50
2019-05-26T11:18:45.833Z,35.70
2019-05-26T11:21:16.216Z,35.80
2019-05-26T11:23:46.633Z,36.10
2019-05-26T11:26:17.014Z,36.30
2019-05-26T11:28:47.529Z,36.50
2019-05-26T11:31:17.959Z,36.50
2019-05-26T11:33:48.361Z,35.90
2019-05-26T11:36:18.748Z,35.70
2019-05-26T11:38:49.235Z,35.70
2019-05-26T11:41:19.592Z,36.10
2019-05-26T11:43:50.027Z,36.20
2019-05-26T11:46:20.404Z,36.40
2019-05-26T11:48:52.286Z,36.30
2019-05-26T11:51:22.721Z,36.10
2019-05-26T11:53:53.298Z,35.80
2019-05-26T11:56:23.679Z,35.70
2019-05-26T11:58:54.389Z,35.70
2019-05-26T12:01:26.236Z,35.70
2019-05-26T12:03:56.720Z,35.00
2019-05-26T12:06:27.087Z,34.60
2019-05-26T12:08:57.488Z,34.30
2019-05-26T12:11:27.887Z,34.20
2019-05-26T12:13:58.303Z,34.90
2019-05-26T12:16:29.052Z,35.30
2019-05-26T12:18:59.643Z,35.20
2019-05-26T12:21:30.083Z,35.10
2019-05-26T12:24:00.487Z,34.90
2019-05-26T12:26:30.860Z,35.00
2019-05-26T12:29:01.377Z,35.10
2019-05-26T12:31:33.275Z,35.00
2019-05-26T12:34:03.816Z,34.70
2019-05-26T12:36:34.227Z,34.90
2019-05-26T12:39:07.637Z,34.20
2019-05-26T12:41:38.055Z,34.60
2019-05-26T12:44:10.854Z,34.20
2019-05-26T12:46:40.643Z,34.10
2019-05-26T12:49:12.559Z,33.50
2019-05-26T12:51:42.958Z,33.70
2019-05-26T12:54:13.332Z,33.00
2019-05-26T12:56:45.302Z,32.80
2019-05-26T12:59:15.760Z,33.20
2019-05-26T13:01:46.162Z,33.70
2019-05-26T13:04:16.520Z,34.50
2019-05-26T13:06:46.973Z,34.60
2019-05-26T13:09:18.811Z,34.90
2019-05-26T13:11:49.300Z,35.40
2019-05-26T13:14:21.157Z,35.90
2019-05-26T13:16:51.635Z,36.00
2019-05-26T13:19:22.124Z,36.10
2019-05-26T13:21:52.501Z,36.40
2019-05-26T13:24:22.873Z,36.50
2019-05-26T13:26:53.424Z,36.70
2019-05-26T13:29:25.869Z,36.50
2019-05-26T13:31:55.891Z,35.80
2019-05-26T13:34:27.788Z,35.60
2019-05-26T13:36:58.149Z,35.20
2019-05-26T13:39:28.704Z,35.00
2019-05-26T13:41:59.127Z,34.80
2019-05-26T13:44:29.549Z,35.60
2019-05-26T13:46:59.924Z,36.00
2019-05-26T13:49:30.339Z,35.80
2019-05-26T13:52:00.719Z,35.90
2019-05-26T13:54:31.214Z,36.00
2019-05-26T13:57:01.584Z,36.50
2019-05-26T13:59:31.992Z,36.70
2019-05-26T14:02:02.371Z,36.80
2019-05-26T14:04:33.654Z,36.70
2019-05-26T14:07:04.100Z,36.60
2019-05-26T14:09:34.542Z,36.80
2019-05-26T14:12:05.301Z,37.40
2019-05-26T14:14:35.725Z,37.30
2019-05-26T14:17:06.107Z,36.80
2019-05-26T14:19:37.822Z,36.70
2019-05-26T14:22:08.201Z,36.40
2019-05-26T14:24:52.885Z,35.80
2019-05-26T14:27:10.872Z,35.50
2019-05-26T14:29:41.301Z,35.60
2019-05-26T14:32:11.744Z,35.40
2019-05-26T14:34:42.179Z,35.40
2019-05-26T14:37:12.597Z,35.30
2019-05-26T14:39:43.020Z,35.50
2019-05-26T14:42:13.399Z,35.40
2019-05-26T14:44:43.810Z,35.30
2019-05-26T14:47:14.185Z,35.20
2019-05-26T14:49:44.567Z,35.40
2019-05-26T14:52:15.052Z,35.60
2019-05-26T14:54:45.465Z,35.40
2019-05-26T14:57:15.916Z,35.40
2019-05-26T14:59:46.322Z,35.70
2019-05-26T15:02:16.861Z,35.70
2019-05-26T15:04:47.247Z,35.70
2019-05-26T15:07:17.669Z,35.90
2019-05-26T15:09:48.074Z,35.90
2019-05-26T15:12:20.873Z,35.90
2019-05-26T15:14:51.259Z,36.30
2019-05-26T15:17:21.662Z,36.60
2019-05-26T15:19:53.623Z,36.60
2019-05-26T15:22:25.475Z,36.70
2019-05-26T15:24:55.852Z,36.80
2019-05-26T15:27:26.236Z,37.10
2019-05-26T15:29:56.630Z,37.60
2019-05-26T15:32:26.994Z,38.10
2019-05-26T15:34:57.413Z,38.60
2019-05-26T15:37:27.812Z,38.80
2019-05-26T15:39:58.230Z,38.70
2019-05-26T15:42:28.723Z,38.90
2019-05-26T15:44:59.228Z,39.10
2019-05-26T15:47:29.684Z,39.30
2019-05-26T15:50:00.123Z,39.10
2019-05-26T15:52:31.955Z,38.90
2019-05-26T15:55:02.409Z,38.90
2019-05-26T15:57:32.784Z,38.80
2019-05-26T16:00:04.590Z,38.70
2019-05-26T16:02:34.983Z,38.90
2019-05-26T16:05:07.035Z,39.10
2019-05-26T16:07:37.394Z,39.10
2019-05-26T16:10:08.516Z,39.00
2019-05-26T16:12:38.998Z,39.00
2019-05-26T16:15:09.875Z,39.00
2019-05-26T16:17:40.277Z,39.10
2019-05-26T16:20:11.056Z,38.90
2019-05-26T16:22:42.890Z,38.90
2019-05-26T16:25:14.298Z,38.70
2019-05-26T16:27:44.665Z,38.70
2019-05-26T16:30:16.359Z,39.00
2019-05-26T16:32:46.759Z,39.10
2019-05-26T16:35:17.246Z,39.10
2019-05-26T16:37:47.713Z,38.70
2019-05-26T16:40:18.196Z,38.50
2019-05-26T16:42:48.672Z,38.40
2019-05-26T16:45:21.471Z,38.10
2019-05-26T16:47:51.910Z,37.90
2019-05-26T16:50:22.320Z,37.80
2019-05-26T16:52:54.550Z,37.80
2019-05-26T16:55:24.793Z,38.10
2019-05-26T16:57:55.205Z,38.30
2019-05-26T17:00:25.568Z,38.60
2019-05-26T17:02:55.977Z,39.00
2019-05-26T17:05:26.347Z,39.50
2019-05-26T17:07:56.761Z,39.90
2019-05-26T17:10:27.145Z,40.30
2019-05-26T17:12:57.569Z,40.60
2019-05-26T17:15:27.945Z,41.00
2019-05-26T17:17:58.349Z,41.20
2019-05-26T17:20:30.208Z,41.40
2019-05-26T17:23:00.666Z,41.60
2019-05-26T17:25:31.294Z,41.80
2019-05-26T17:28:01.973Z,42.20
2019-05-26T17:30:32.500Z,42.50
2019-05-26T17:33:02.933Z,42.60
2019-05-26T17:35:33.489Z,42.80
2019-05-26T17:38:03.977Z,42.90
2019-05-26T17:40:35.256Z,43.10
2019-05-26T17:43:05.712Z,44.10
2019-05-26T17:45:36.142Z,43.80
2019-05-26T17:48:06.524Z,44.10
2019-05-26T17:50:37.028Z,44.30
2019-05-26T17:53:07.397Z,44.60
2019-05-26T17:55:37.890Z,44.90
2019-05-26T17:58:08.267Z,45.20
2019-05-26T18:00:38.774Z,45.40
2019-05-26T18:03:09.149Z,45.50
2019-05-26T18:05:39.633Z,45.70
2019-05-26T18:08:11.513Z,45.50
2019-05-26T18:10:41.886Z,45.60
2019-05-26T18:13:12.309Z,45.90
2019-05-26T18:15:42.723Z,46.20
2019-05-26T18:18:13.220Z,46.40
2019-05-26T18:20:43.831Z,46.60
2019-05-26T18:23:14.258Z,46.90
2019-05-26T18:25:44.657Z,47.10
2019-05-26T18:28:15.074Z,47.30
2019-05-26T18:30:45.467Z,47.40
2019-05-26T18:33:17.377Z,47.60
2019-05-26T18:35:47.793Z,47.70
2019-05-26T18:38:18.200Z,48.00
2019-05-26T18:40:50.106Z,48.30
2019-05-26T18:43:20.514Z,48.40
2019-05-26T18:45:50.903Z,48.40
2019-05-26T18:48:21.324Z,48.50
2019-05-26T18:50:51.701Z,48.50
2019-05-26T18:53:22.122Z,48.60
2019-05-26T18:55:52.564Z,48.60
2019-05-26T18:58:22.944Z,48.70
2019-05-26T19:00:53.745Z,48.70
2019-05-26T19:03:24.128Z,48.70
2019-05-26T19:05:54.548Z,48.80
2019-05-26T19:08:24.916Z,49.00
2019-05-26T19:10:55.380Z,49.10
2019-05-26T19:13:25.836Z,49.20
2019-05-26T19:15:56.322Z,49.30
2019-05-26T19:18:26.717Z,49.50
2019-05-26T19:20:57.187Z,49.60
2019-05-26T19:23:29.055Z,49.90
2019-05-26T19:25:59.574Z,49.80
2019-05-26T19:28:29.974Z,49.70
2019-05-26T19:31:00.433Z,49.70
2019-05-26T19:33:30.803Z,49.70
2019-05-26T19:36:01.285Z,49.60
2019-05-26T19:38:33.168Z,49.50
2019-05-26T19:41:03.567Z,49.50
2019-05-26T19:43:33.994Z,49.50
2019-05-26T19:46:04.683Z,49.50
2019-05-26T19:48:37.146Z,49.50
2019-05-26T19:51:07.434Z,49.60
2019-05-26T19:53:37.991Z,49.60
2019-05-26T19:56:10.655Z,49.60
2019-05-26T19:58:41.070Z,49.80
2019-05-26T20:01:13.034Z,50.00
2019-05-26T20:03:44.921Z,50.00
2019-05-26T20:06:15.445Z,50.10
2019-05-26T20:08:46.009Z,50.40
2019-05-26T20:11:17.357Z,50.60
2019-05-26T20:13:47.747Z,50.80
2019-05-26T20:16:18.154Z,51.10
2019-05-26T20:18:48.536Z,51.30
2019-05-26T20:21:19.041Z,51.30
2019-05-26T20:23:49.419Z,51.30
2019-05-26T20:26:19.880Z,51.30
2019-05-26T20:28:50.246Z,51.30
2019-05-26T20:31:22.120Z,51.40
2019-05-26T20:33:52.535Z,51.60
2019-05-26T20:36:24.466Z,51.90
2019-05-26T20:38:54.949Z,52.70
2019-05-26T20:41:25.368Z,52.30
2019-05-26T20:43:55.788Z,52.70
2019-05-26T20:46:26.167Z,52.90
2019-05-26T20:48:58.591Z,53.20
2019-05-26T20:51:29.610Z,53.40
2019-05-26T20:54:00.060Z,53.40
2019-05-26T20:56:30.579Z,53.40
2019-05-26T20:59:00.948Z,53.40
2019-05-26T21:01:31.427Z,53.20
2019-05-26T21:04:01.852Z,53.20
2019-05-26T21:06:32.335Z,53.20
2019-05-26T21:09:02.832Z,53.40
2019-05-26T21:11:33.265Z,53.50
2019-05-26T21:14:03.755Z,53.50
2019-05-26T21:16:34.181Z,53.70
2019-05-26T21:19:04.626Z,53.90
2019-05-26T21:21:36.514Z,54.20
2019-05-26T21:24:06.978Z,54.50
2019-05-26T21:26:38.874Z,54.90
2019-05-26T21:29:09.294Z,55.20
2019-05-26T21:31:39.916Z,55.40
2019-05-26T21:34:10.416Z,55.70
2019-05-26T21:36:40.897Z,55.80
2019-05-26T21:39:12.750Z,55.90
2019-05-26T21:41:43.229Z,55.90
2019-05-26T21:44:13.668Z,55.90
2019-05-26T21:46:44.073Z,55.90
2019-05-26T21:49:15.281Z,56.20
2019-05-26T21:51:45.686Z,56.30
2019-05-26T21:54:16.070Z,56.50
2019-05-26T21:56:46.551Z,56.50
2019-05-26T21:59:18.397Z,56.50
2019-05-26T22:01:48.820Z,56.70
2019-05-26T22:04:19.210Z,56.90
2019-05-26T22:06:49.691Z,57.10
2019-05-26T22:09:20.169Z,57.20
2019-05-26T22:11:50.572Z,57.40
2019-05-26T22:14:20.983Z,57.40
2019-05-26T22:16:51.353Z,57.50
2019-05-26T22:19:21.776Z,57.60
2019-05-26T22:21:52.173Z,57.80
2019-05-26T22:24:22.586Z,58.00
2019-05-26T22:26:52.982Z,58.40
2019-05-26T22:29:23.437Z,58.60
2019-05-26T22:31:53.856Z,58.50
2019-05-26T22:34:24.236Z,58.40
2019-05-26T22:36:54.640Z,58.60
2019-05-26T22:39:26.524Z,58.90
2019-05-26T22:41:56.902Z,59.20
2019-05-26T22:44:27.288Z,59.20
2019-05-26T22:46:57.714Z,59.40
2019-05-26T22:49:28.179Z,59.50
2019-05-26T22:51:58.596Z,59.60
2019-05-26T22:54:29.067Z,59.90
2019-05-26T22:56:59.523Z,60.00
2019-05-26T22:59:29.904Z,60.10
2019-05-26T23:02:00.316Z,60.50
2019-05-26T23:04:30.708Z,60.70
2019-05-26T23:07:01.190Z,61.10
2019-05-26T23:09:31.559Z,61.40
2019-05-26T23:12:02.182Z,61.90
2019-05-26T23:14:32.715Z,62.30
2019-05-26T23:17:03.415Z,62.50
2019-05-26T23:19:33.988Z,62.80
2019-05-26T23:22:04.521Z,63.10
2019-05-26T23:24:34.896Z,63.20
2019-05-26T23:27:06.775Z,63.50
2019-05-26T23:29:37.295Z,63.60
2019-05-26T23:32:09.187Z,63.80
2019-05-26T23:34:39.589Z,63.90
2019-05-26T23:37:09.978Z,64.10
2019-05-26T23:39:41.824Z,64.80
2019-05-26T23:42:12.251Z,64.20
2019-05-26T23:44:42.640Z,64.40
2019-05-26T23:47:13.137Z,64.60
2019-05-26T23:49:43.640Z,64.80
2019-05-26T23:52:19.045Z,65.00
2019-05-26T23:54:47.592Z,65.10
2019-05-26T23:57:17.993Z,65.20
2019-05-26T23:59:48.394Z,65.10
